Terminal Aerodrome Forecast
Issued by NWS Wilmington, OH

Current Version | Previous Version | Graphics & Text | Print | Product List | Glossary On
Versions: 1 2 3 4 5 6 7 8 9 10 11 12 13
469
FTUS41 KILN 040143 AAA
TAFCMH
TAF AMD
KCMH 040143Z 0402/0424 28016G25KT P6SM SKC
     FM040330 28013G23KT P6SM OVC025
      TEMPO 0404/0405 SCT025 OVC035
     FM040700 27012KT P6SM OVC015
     FM041600 27009KT P6SM BKN025
     FM042000 27011KT P6SM BKN050=

USA.gov is the U.S. government's official web portal to all federal, state and local government web resources and services.